Time;durP1;ratioP1;P1;durP2;ratioP2;P2;SDS_P1;SDS_P2;PMS_P1;PMS_P2;Temp;Humidity;BMP_temperature;BMP_pressure;BME280_temperature;BME280_humidity;BME280_pressure;Samples;Min_cycle;Max_cycle;Signal;HPM_P1;HPM_P2
2023/04/15 00:00:07;;;;;;;;;4.00;4.00;;;;;11.05;69.10;100350.47;5120614;27;46372;-65
2023/04/15 00:02:32;;;;;;;;;4.00;3.00;;;;;10.96;69.29;100341.09;5120580;27;45255;-65
2023/04/15 00:04:58;;;;;;;;;3.00;3.00;;;;;10.99;69.46;100351.53;5120825;27;45357;-65
2023/04/15 00:07:23;;;;;;;;;4.25;3.00;;;;;10.94;69.12;100358.72;5120879;27;45308;-65
2023/04/15 00:09:48;;;;;;;;;4.00;3.00;;;;;10.92;69.79;100357.88;5120621;27;46346;-65
2023/04/15 00:12:14;;;;;;;;;5.00;5.00;;;;;10.89;70.38;100350.97;5119965;27;45484;-65
2023/04/15 00:14:39;;;;;;;;;3.67;3.67;;;;;10.83;69.89;100347.63;5120444;27;45353;-66
2023/04/15 00:17:04;;;;;;;;;2.00;2.00;;;;;10.89;70.13;100350.06;5120675;27;45336;-65
2023/04/15 00:19:31;;;;;;;;;3.67;3.67;;;;;10.85;70.80;100351.06;5120211;27;46372;-65
2023/04/15 00:21:56;;;;;;;;;3.25;3.25;;;;;10.79;70.94;100333.72;5120278;27;45330;-65
2023/04/15 00:24:22;;;;;;;;;4.00;4.00;;;;;10.84;71.01;100341.47;5120518;27;45343;-65
2023/04/15 00:26:48;;;;;;;;;4.00;4.00;;;;;10.90;70.22;100355.31;5120528;27;45490;-65
2023/04/15 00:29:14;;;;;;;;;3.33;3.33;;;;;10.85;71.38;100348.44;5120263;27;45190;-65
2023/04/15 00:31:39;;;;;;;;;5.67;5.33;;;;;10.61;71.75;100312.25;5119005;27;45229;-65
2023/04/15 00:34:04;;;;;;;;;4.00;3.00;;;;;10.86;71.75;100351.03;5120379;27;45219;-65
2023/04/15 00:36:30;;;;;;;;;4.00;2.75;;;;;10.82;71.38;100338.88;5120324;27;45533;-65
2023/04/15 00:38:56;;;;;;;;;3.67;3.33;;;;;10.81;72.12;100342.41;5119810;27;47768;-65
2023/04/15 00:41:22;;;;;;;;;5.00;3.00;;;;;10.73;73.34;100345.28;5119684;27;45491;-65
2023/04/15 00:43:47;;;;;;;;;2.33;2.33;;;;;10.68;72.91;100338.44;5120178;27;45313;-65
2023/04/15 00:46:16;;;;;;;;;6.00;4.00;;;;;10.82;71.37;100345.91;5120403;27;45434;-65
2023/04/15 00:48:42;;;;;;;;;4.75;4.75;;;;;10.78;72.12;100340.72;5119845;27;46386;-65
2023/04/15 00:51:08;;;;;;;;;3.00;1.00;;;;;10.71;72.89;100326.03;5119777;27;45400;-65
2023/04/15 00:53:34;;;;;;;;;4.00;4.00;;;;;10.85;73.50;100345.81;5119863;27;45288;-65
2023/04/15 00:55:59;;;;;;;;;4.00;4.00;;;;;10.79;72.26;100334.56;5119965;27;45470;-66
2023/04/15 00:58:26;;;;;;;;;4.00;3.00;;;;;10.77;73.07;100335.50;5119772;27;45275;-66
2023/04/15 01:00:53;;;;;;;;;3.00;3.00;;;;;10.73;73.30;100326.88;5118893;27;45375;-65
2023/04/15 01:03:19;;;;;;;;;2.50;2.25;;;;;10.76;73.53;100333.78;5119152;27;45395;-66
2023/04/15 01:05:45;;;;;;;;;3.50;3.00;;;;;10.73;74.45;100337.41;5119818;27;45446;-65
2023/04/15 01:08:11;;;;;;;;;3.00;3.00;;;;;10.78;74.42;100346.00;5119360;27;47288;-65
2023/04/15 01:10:36;;;;;;;;;4.00;3.00;;;;;10.74;74.95;100341.72;5119530;27;45427;-65
2023/04/15 01:13:02;;;;;;;;;4.25;3.00;;;;;10.77;74.86;100346.06;5100749;27;45338;-66
2023/04/15 01:15:28;;;;;;;;;3.00;1.75;;;;;10.80;75.55;100345.94;5119494;27;45421;-65
2023/04/15 01:17:53;;;;;;;;;3.67;3.67;;;;;10.73;75.43;100334.75;5119352;27;45959;-65
2023/04/15 01:20:19;;;;;;;;;4.25;4.00;;;;;10.73;74.74;100329.50;5119267;27;45363;-65
2023/04/15 01:22:45;;;;;;;;;0.00;0.00;;;;;10.77;76.25;100344.28;5119709;27;45272;-65
2023/04/15 01:25:16;;;;;;;;;3.25;3.00;;;;;10.76;75.79;100331.16;5119374;27;45604;-64
2023/04/15 01:27:42;;;;;;;;;5.00;3.75;;;;;10.82;76.25;100345.91;5118910;27;46033;-65
2023/04/15 01:30:09;;;;;;;;;5.00;3.67;;;;;10.82;77.13;100343.28;5119308;27;45470;-65
2023/04/15 01:32:35;;;;;;;;;5.00;4.33;;;;;10.81;77.02;100342.41;5119193;27;45342;-65
2023/04/15 01:35:01;;;;;;;;;5.00;3.00;;;;;10.81;77.02;100339.78;5119029;27;45412;-65
2023/04/15 01:37:26;;;;;;;;;4.00;2.33;;;;;10.83;77.49;100345.84;5119062;27;46155;-63
2023/04/15 01:39:51;;;;;;;;;4.00;4.00;;;;;10.70;77.79;100324.28;5118833;27;45237;-63
2023/04/15 01:42:17;;;;;;;;;6.67;4.33;;;;;10.79;77.85;100342.47;5118579;27;45253;-63
2023/04/15 01:44:42;;;;;;;;;5.25;3.00;;;;;10.77;77.91;100343.41;5119458;27;45438;-63
2023/04/15 01:47:07;;;;;;;;;5.00;5.00;;;;;10.75;77.03;100355.78;5118910;27;46652;-63
2023/04/15 01:49:33;;;;;;;;;3.25;3.00;;;;;10.48;77.32;100312.69;5119236;27;45332;-63
2023/04/15 01:51:59;;;;;;;;;4.67;4.67;;;;;10.71;78.06;100352.34;5119020;27;45490;-63
2023/04/15 01:54:26;;;;;;;;;4.75;4.25;;;;;10.66;77.34;100348.13;5119096;27;45248;-63
2023/04/15 01:56:51;;;;;;;;;7.67;6.00;;;;;10.68;77.94;100362.13;5118736;27;47391;-63
2023/04/15 01:59:17;;;;;;;;;4.67;4.33;;;;;10.64;78.28;100356.09;5118646;27;45415;-63
2023/04/15 02:01:44;;;;;;;;;6.00;4.33;;;;;10.58;78.43;100354.47;5118920;27;45305;-64
2023/04/15 02:04:15;;;;;;;;;6.00;4.67;;;;;10.57;79.13;100359.81;5118949;27;45288;-63
2023/04/15 02:06:41;;;;;;;;;5.67;5.00;;;;;10.52;80.06;100359.09;5118470;27;47292;-63
2023/04/15 02:09:07;;;;;;;;;6.00;5.00;;;;;10.52;80.05;100361.72;5118737;27;45445;-63
2023/04/15 02:11:34;;;;;;;;;6.00;6.00;;;;;10.55;79.99;100372.16;5118483;27;45335;-63
2023/04/15 02:13:59;;;;;;;;;7.00;5.00;;;;;10.58;80.41;100369.44;5118647;27;45422;-63
2023/04/15 02:16:24;;;;;;;;;7.00;6.00;;;;;10.52;80.37;100364.34;5118472;27;45278;-63
2023/04/15 02:18:50;;;;;;;;;6.00;6.00;;;;;10.55;78.23;100372.16;5118620;27;45250;-63
2023/04/15 02:21:17;;;;;;;;;7.00;4.67;;;;;10.51;79.68;100381.91;5118748;27;45447;-63
2023/04/15 02:23:43;;;;;;;;;6.00;4.33;;;;;10.48;81.16;100383.75;5118774;27;45351;-63
2023/04/15 02:26:09;;;;;;;;;6.00;6.00;;;;;10.48;82.47;100381.13;5118397;27;45555;-63
2023/04/15 02:28:34;;;;;;;;;6.00;4.00;;;;;10.47;82.54;100369.75;5118256;27;45323;-63
2023/04/15 02:31:01;;;;;;;;;5.00;5.00;;;;;10.49;82.59;100382.88;5118472;27;45471;-63
2023/04/15 02:33:26;;;;;;;;;5.00;4.00;;;;;10.51;82.49;100388.94;5118439;27;45351;-63
2023/04/15 02:35:52;;;;;;;;;33.00;32.00;;;;;10.47;83.85;100382.03;5118132;27;46284;-63
2023/04/15 02:38:17;;;;;;;;;6.00;4.33;;;;;10.50;82.66;100397.72;5118310;27;45504;-63
2023/04/15 02:40:43;;;;;;;;;4.33;4.00;;;;;10.54;82.48;100396.75;5118210;27;45623;-63
2023/04/15 02:43:08;;;;;;;;;6.00;5.00;;;;;10.54;83.63;100394.13;5118162;27;45422;-63
2023/04/15 02:45:34;;;;;;;;;4.00;4.00;;;;;10.53;84.14;100395.91;5118145;27;47549;-63
2023/04/15 02:48:02;;;;;;;;;5.00;4.00;;;;;10.53;83.93;100409.06;5118085;27;45205;-63
2023/04/15 02:50:28;;;;;;;;;6.00;4.00;;;;;10.51;82.58;100407.38;5118258;27;45411;-63
2023/04/15 02:52:53;;;;;;;;;7.00;5.33;;;;;10.55;83.02;100409.00;5118329;27;45281;-63
2023/04/15 02:55:18;;;;;;;;;6.33;6.00;;;;;10.57;82.32;100420.34;5121322;27;46257;-63
2023/04/15 02:57:44;;;;;;;;;5.67;5.67;;;;;10.51;82.66;100410.00;5121671;27;45337;-63
2023/04/15 03:00:10;;;;;;;;;17.00;15.00;;;;;10.43;82.48;100400.53;5121786;27;45403;-63
2023/04/15 03:02:37;;;;;;;;;20.00;13.67;;;;;10.50;82.86;100427.56;5121938;27;45516;-63
2023/04/15 03:05:04;;;;;;;;;13.00;13.00;;;;;10.39;82.76;100409.44;5121442;27;46345;-63
2023/04/15 03:07:30;;;;;;;;;14.67;13.67;;;;;10.41;82.26;100419.91;5120964;27;45208;-63
2023/04/15 03:09:55;;;;;;;;;12.67;10.00;;;;;10.39;83.00;100416.47;5121656;27;45363;-63
2023/04/15 03:12:21;;;;;;;;;10.67;8.33;;;;;10.40;82.89;100421.69;5121530;27;45328;-63
2023/04/15 03:14:46;;;;;;;;;9.00;7.67;;;;;10.41;82.88;100439.22;5121179;27;45379;-63
2023/04/15 03:17:12;;;;;;;;;6.00;6.00;;;;;10.40;82.82;100440.13;5121295;27;45347;-63
2023/04/15 03:19:37;;;;;;;;;8.33;7.33;;;;;10.40;83.17;100453.28;5121383;27;45429;-63
2023/04/15 03:22:02;;;;;;;;;9.33;7.67;;;;;10.27;82.28;100433.44;5121802;27;45328;-63
2023/04/15 03:24:29;;;;;;;;;7.33;7.33;;;;;10.37;83.73;100449.84;5121218;27;46283;-63
2023/04/15 03:26:55;;;;;;;;;10.33;6.67;;;;;10.36;83.79;100449.00;5121168;27;45301;-63
2023/04/15 03:29:20;;;;;;;;;9.00;7.00;;;;;10.31;84.53;100455.25;5121181;27;45327;-63
2023/04/15 03:31:45;;;;;;;;;8.00;8.00;;;;;10.36;83.44;100461.28;5121339;27;45378;-63
2023/04/15 03:34:11;;;;;;;;;8.67;8.67;;;;;10.36;83.56;100456.03;5121008;27;46537;-63
2023/04/15 03:36:36;;;;;;;;;9.00;7.33;;;;;10.35;82.84;100464.81;5121071;27;45421;-63
2023/04/15 03:39:02;;;;;;;;;7.33;6.00;;;;;10.31;83.88;100460.50;5121196;27;45538;-63
2023/04/15 03:41:27;;;;;;;;;12.33;10.67;;;;;10.29;85.51;100456.13;5121067;27;45338;-63
2023/04/15 03:43:53;;;;;;;;;6.33;6.33;;;;;10.34;85.81;100474.50;5123124;27;46244;-63
2023/04/15 03:46:18;;;;;;;;;5.67;5.33;;;;;10.34;84.67;100468.34;5132035;27;45232;-63
2023/04/15 03:48:44;;;;;;;;;8.67;8.67;;;;;10.27;84.81;100460.59;5121205;27;45409;-63
2023/04/15 03:51:09;;;;;;;;;9.00;7.67;;;;;10.38;84.18;100478.78;5121289;27;45443;-63
2023/04/15 03:53:35;;;;;;;;;8.00;7.00;;;;;10.32;83.80;100464.88;5120633;27;45576;-63
2023/04/15 03:56:00;;;;;;;;;8.67;7.33;;;;;10.36;83.33;100471.81;5120909;27;45304;-63
2023/04/15 03:58:25;;;;;;;;;10.33;10.33;;;;;10.25;83.45;100465.03;5120678;27;45722;-63
2023/04/15 04:00:51;;;;;;;;;9.67;9.67;;;;;10.26;83.49;100479.91;5121004;27;45395;-63
2023/04/15 04:03:16;;;;;;;;;12.00;8.67;;;;;10.18;83.64;100459.97;5120594;27;46259;-63
2023/04/15 04:05:43;;;;;;;;;15.33;11.33;;;;;10.11;84.12;100459.28;5120446;27;45362;-63
2023/04/15 04:08:09;;;;;;;;;13.33;13.33;;;;;10.23;84.69;100476.50;5119217;27;45268;-63
2023/04/15 04:10:34;;;;;;;;;10.00;9.00;;;;;10.11;85.28;100465.38;5120850;27;45350;-64
2023/04/15 04:13:00;;;;;;;;;12.67;11.67;;;;;10.18;85.75;100478.38;5119977;27;46585;-63
2023/04/15 04:15:26;;;;;;;;;14.67;14.67;;;;;10.13;84.77;100480.28;5120622;27;45408;-64
2023/04/15 04:17:51;;;;;;;;;14.33;13.00;;;;;10.11;85.35;100489.06;5120532;27;45308;-63
2023/04/15 04:20:16;;;;;;;;;18.33;15.00;;;;;10.02;84.54;100475.25;5120711;27;45532;-64
2023/04/15 04:22:42;;;;;;;;;9.67;9.67;;;;;10.08;84.04;100490.91;5120429;27;45468;-64
2023/04/15 04:25:08;;;;;;;;;16.33;15.67;;;;;10.04;84.14;100503.28;5120402;27;45353;-64
2023/04/15 04:27:34;;;;;;;;;8.33;8.00;;;;;9.88;84.61;100487.00;5120433;27;45449;-64
2023/04/15 04:30:00;;;;;;;;;17.67;10.00;;;;;9.90;83.78;100493.09;5120386;27;45232;-64
2023/04/15 04:32:26;;;;;;;;;9.33;7.67;;;;;9.92;84.45;100499.19;5120091;27;45447;-63
2023/04/15 04:34:51;;;;;;;;;11.00;8.00;;;;;9.94;85.43;100501.75;5120028;27;45274;-63
2023/04/15 04:37:16;;;;;;;;;11.33;8.33;;;;;9.89;84.87;100503.63;5120186;27;45209;-63
2023/04/15 04:39:42;;;;;;;;;8.00;8.00;;;;;9.99;85.51;100528.84;5120685;27;45368;-63
2023/04/15 04:42:07;;;;;;;;;9.67;9.00;;;;;9.94;84.92;100517.53;5119764;27;45991;-63
2023/04/15 04:44:33;;;;;;;;;13.00;9.00;;;;;9.97;84.35;100529.78;5119724;27;45473;-63
2023/04/15 04:46:58;;;;;;;;;8.33;8.33;;;;;9.91;84.91;100522.88;5120308;27;45308;-63
2023/04/15 04:49:23;;;;;;;;;6.00;6.00;;;;;9.98;84.68;100537.63;5120273;27;45398;-63
2023/04/15 04:51:49;;;;;;;;;9.67;8.00;;;;;9.95;83.79;100532.44;5119923;27;46455;-63
2023/04/15 04:54:15;;;;;;;;;9.33;7.00;;;;;9.85;84.67;100523.88;5119761;27;45411;-63
2023/04/15 04:56:40;;;;;;;;;5.33;5.00;;;;;9.70;84.52;100498.81;5119792;27;45532;-63
2023/04/15 04:59:06;;;;;;;;;7.00;7.00;;;;;9.98;83.47;100545.50;5120045;27;45295;-63
2023/04/15 05:01:32;;;;;;;;;4.33;4.33;;;;;9.94;84.01;100554.38;5119405;27;46984;-63
2023/04/15 05:03:58;;;;;;;;;5.00;5.00;;;;;9.94;84.85;100549.09;5119521;27;45307;-63
2023/04/15 05:06:23;;;;;;;;;6.00;4.67;;;;;9.92;84.81;100564.94;5119711;27;45500;-63
2023/04/15 05:08:49;;;;;;;;;5.67;5.00;;;;;9.86;84.66;100551.94;5119899;27;45706;-63
2023/04/15 05:11:14;;;;;;;;;4.00;4.00;;;;;9.86;84.62;100559.81;5119714;27;45434;-63
2023/04/15 05:13:39;;;;;;;;;5.00;5.00;;;;;9.96;85.11;100580.63;5119324;27;45798;-63
2023/04/15 05:16:05;;;;;;;;;4.67;4.67;;;;;9.94;84.28;100584.16;5119159;27;45388;-63
2023/04/15 05:18:30;;;;;;;;;6.67;5.00;;;;;9.57;84.74;100527.16;5119665;27;45366;-63
2023/04/15 05:20:56;;;;;;;;;5.33;5.33;;;;;9.94;85.66;100601.72;5119245;27;46252;-63
2023/04/15 05:23:21;;;;;;;;;4.50;4.50;;;;;9.91;85.01;100601.78;5119562;27;45264;-63
2023/04/15 05:25:47;;;;;;;;;7.00;6.33;;;;;9.97;85.37;100604.25;5119349;27;45317;-63
2023/04/15 05:28:12;;;;;;;;;5.33;4.67;;;;;10.00;85.56;100611.22;5119655;27;45391;-63
2023/04/15 05:30:38;;;;;;;;;6.00;6.00;;;;;10.00;84.62;100619.13;5119289;27;45281;-63
2023/04/15 05:33:03;;;;;;;;;8.33;6.00;;;;;9.95;85.63;100613.97;5118838;27;45392;-63
2023/04/15 05:35:29;;;;;;;;;6.67;5.00;;;;;10.00;85.35;100627.00;5119290;27;45374;-63
2023/04/15 05:37:54;;;;;;;;;8.67;7.00;;;;;9.99;84.98;100626.16;5119225;27;45504;-63
2023/04/15 05:40:20;;;;;;;;;6.67;5.33;;;;;9.95;85.02;100621.84;5119155;27;46149;-63
2023/04/15 05:42:45;;;;;;;;;7.67;7.33;;;;;9.99;84.83;100627.91;5118912;27;45326;-63
2023/04/15 05:45:11;;;;;;;;;7.67;6.00;;;;;10.09;85.30;100639.94;5119226;27;45422;-63
2023/04/15 05:47:36;;;;;;;;;5.00;5.00;;;;;10.10;86.51;100641.69;5119324;27;45568;-63
2023/04/15 05:50:02;;;;;;;;;10.00;7.33;;;;;10.17;86.78;100639.78;5118846;27;47217;-63
2023/04/15 05:52:28;;;;;;;;;13.67;11.00;;;;;10.20;87.35;100645.84;5118855;27;45474;-63
2023/04/15 05:54:53;;;;;;;;;13.67;8.67;;;;;10.24;86.00;100658.03;5118887;27;45292;-63
2023/04/15 05:57:18;;;;;;;;;14.00;14.00;;;;;10.24;86.63;100650.13;5119193;27;45431;-63
2023/04/15 05:59:44;;;;;;;;;14.00;14.00;;;;;10.27;85.88;100652.69;5118687;27;46441;-63
2023/04/15 06:02:09;;;;;;;;;17.00;17.00;;;;;10.34;84.57;100661.34;5118509;27;45421;-63
2023/04/15 06:04:35;;;;;;;;;20.00;15.00;;;;;10.29;87.15;100652.66;5118874;27;45761;-63
2023/04/15 06:07:01;;;;;;;;;17.33;17.00;;;;;10.30;85.33;100659.66;5118978;27;45212;-63
2023/04/15 06:09:27;;;;;;;;;24.33;21.33;;;;;10.38;86.05;100676.19;5118775;27;45353;-63
2023/04/15 06:11:53;;;;;;;;;21.67;18.00;;;;;10.44;85.72;100677.78;5118780;27;45238;-63
2023/04/15 06:14:18;;;;;;;;;23.33;17.00;;;;;10.43;86.57;100679.56;5118427;27;45135;-63
2023/04/15 06:16:44;;;;;;;;;21.00;19.33;;;;;10.50;86.45;100690.81;5118969;27;45983;-63
2023/04/15 06:19:09;;;;;;;;;30.00;25.00;;;;;10.44;87.18;100672.50;5118343;27;45519;-63
2023/04/15 06:21:35;;;;;;;;;19.00;17.33;;;;;10.61;86.40;100696.66;5118582;27;45385;-63
2023/04/15 06:24:01;;;;;;;;;21.00;20.33;;;;;10.61;85.61;100693.19;5118621;27;45385;-63
2023/04/15 06:26:27;;;;;;;;;29.00;26.00;;;;;10.45;86.57;100664.56;5118494;27;45387;-63
2023/04/15 06:28:52;;;;;;;;;25.33;23.00;;;;;10.64;86.72;100698.38;5119540;27;46571;-63
2023/04/15 06:31:18;;;;;;;;;28.00;26.33;;;;;10.73;85.80;100711.34;5122050;27;45291;-63
2023/04/15 06:33:43;;;;;;;;;25.33;23.33;;;;;10.74;85.33;100706.94;5138094;27;45742;-62
2023/04/15 06:36:08;;;;;;;;;31.00;28.33;;;;;10.72;85.82;100716.63;5122400;27;45544;-64
2023/04/15 06:38:34;;;;;;;;;31.33;26.67;;;;;10.83;85.92;100729.53;5121960;27;45354;-63
2023/04/15 06:40:59;;;;;;;;;26.67;26.67;;;;;10.85;85.24;100731.25;5121859;27;45191;-62
2023/04/15 06:43:25;;;;;;;;;22.00;19.33;;;;;10.82;85.33;100727.78;5122014;27;45430;-63
2023/04/15 06:45:50;;;;;;;;;30.00;27.33;;;;;10.85;84.84;100739.13;5122210;27;45306;-64
2023/04/15 06:48:16;;;;;;;;;24.00;23.00;;;;;10.78;85.56;100727.88;5121642;27;47034;-64
2023/04/15 06:50:42;;;;;;;;;28.33;25.00;;;;;10.88;85.19;100754.88;5121866;27;45204;-63
2023/04/15 06:53:07;;;;;;;;;30.33;25.33;;;;;10.78;85.47;100740.19;5121805;27;45611;-63
2023/04/15 06:55:33;;;;;;;;;27.67;25.33;;;;;10.82;86.00;100744.50;5121986;27;45766;-63
2023/04/15 06:57:58;;;;;;;;;23.33;21.33;;;;;10.77;85.85;100749.84;5121813;27;46512;-64
2023/04/15 07:00:24;;;;;;;;;29.33;28.33;;;;;10.85;86.12;100760.22;5121563;27;45433;-63
2023/04/15 07:02:50;;;;;;;;;26.33;23.67;;;;;10.77;85.80;100752.47;5121575;27;45406;-63
2023/04/15 07:05:16;;;;;;;;;29.00;26.33;;;;;10.90;86.45;100776.75;5121944;27;45610;-63
2023/04/15 07:07:41;;;;;;;;;23.33;23.33;;;;;10.91;86.34;100775.00;5121544;27;46430;-63
2023/04/15 07:10:07;;;;;;;;;20.67;19.00;;;;;10.73;85.50;100748.22;5121636;27;45319;-63
2023/04/15 07:12:34;;;;;;;;;25.67;23.00;;;;;10.92;85.05;100774.97;5121353;27;45425;-63
2023/04/15 07:14:59;;;;;;;;;18.33;16.67;;;;;11.06;86.20;100795.69;5121191;27;45505;-63
2023/04/15 07:17:24;;;;;;;;;28.33;24.67;;;;;11.07;86.03;100804.50;5121439;27;45304;-63
2023/04/15 07:19:50;;;;;;;;;28.00;24.00;;;;;10.99;86.05;100791.47;5121009;27;45410;-63
2023/04/15 07:22:15;;;;;;;;;23.33;21.33;;;;;11.00;86.68;100779.19;5121274;27;45370;-64
2023/04/15 07:24:41;;;;;;;;;27.67;24.33;;;;;11.12;86.61;100806.13;5121569;27;45354;-64
2023/04/15 07:27:07;;;;;;;;;25.00;20.67;;;;;11.19;87.09;100816.50;5120838;27;47611;-64
2023/04/15 07:29:32;;;;;;;;;22.00;22.00;;;;;11.19;85.49;100811.22;5120998;27;45666;-64
2023/04/15 07:31:57;;;;;;;;;30.00;24.33;;;;;11.23;87.12;100813.75;5120985;27;45368;-63
2023/04/15 07:34:23;;;;;;;;;22.33;21.67;;;;;11.32;87.00;100828.47;5121397;27;45158;-64
2023/04/15 07:36:50;;;;;;;;;23.00;22.00;;;;;11.28;86.80;100822.44;5120789;27;46174;-64
2023/04/15 07:39:16;;;;;;;;;20.67;19.67;;;;;11.40;84.33;100829.16;5119125;27;45901;-64
2023/04/15 07:41:42;;;;;;;;;22.33;22.33;;;;;11.40;84.95;100837.06;5113566;27;45433;-64
2023/04/15 07:44:08;;;;;;;;;25.67;22.67;;;;;11.38;85.17;100836.22;5120945;27;45422;-64
2023/04/15 07:46:33;;;;;;;;;24.33;21.67;;;;;11.49;85.04;100868.47;5120934;27;47054;-64
2023/04/15 07:48:59;;;;;;;;;27.00;21.00;;;;;11.42;84.82;100851.06;5120544;27;45374;-64
2023/04/15 07:51:24;;;;;;;;;21.33;20.33;;;;;11.56;83.91;100873.59;5120813;27;45423;-64
2023/04/15 07:53:50;;;;;;;;;22.33;21.33;;;;;11.52;84.80;100882.47;5121015;27;45492;-64
2023/04/15 07:56:15;;;;;;;;;25.00;23.67;;;;;11.55;86.21;100892.97;5120532;27;46139;-63
2023/04/15 07:58:41;;;;;;;;;24.00;22.00;;;;;11.48;86.06;100885.19;5120263;27;46061;-63
2023/04/15 08:01:06;;;;;;;;;22.33;21.33;;;;;11.56;85.16;100890.28;5120489;27;45476;-64
2023/04/15 08:03:32;;;;;;;;;24.00;22.00;;;;;11.55;86.97;100895.59;5120748;27;45366;-64
2023/04/15 08:05:58;;;;;;;;;21.00;20.33;;;;;11.32;86.70;100846.94;5120245;27;46449;-64
2023/04/15 08:08:24;;;;;;;;;21.33;19.33;;;;;11.68;84.73;100889.13;5118269;27;45423;-62
2023/04/15 08:10:49;;;;;;;;;21.67;19.00;;;;;11.73;84.01;100892.50;5119933;27;45379;-64
2023/04/15 08:13:15;;;;;;;;;23.33;18.33;;;;;11.87;85.50;100901.84;5119997;27;45566;-63
2023/04/15 08:15:41;;;;;;;;;21.00;19.33;;;;;11.90;83.98;100899.97;5133850;27;46256;-63
2023/04/15 08:18:06;;;;;;;;;22.67;18.00;;;;;11.90;84.63;100894.72;5141083;27;45448;-62
2023/04/15 08:20:32;;;;;;;;;24.67;21.00;;;;;12.07;85.70;100904.88;5140235;27;45513;-63
2023/04/15 08:22:58;;;;;;;;;17.33;16.00;;;;;12.16;83.98;100912.53;5140975;27;45342;-63
2023/04/15 08:25:23;;;;;;;;;15.33;15.33;;;;;12.24;83.18;100914.94;5140467;27;46395;-62
2023/04/15 08:27:48;;;;;;;;;29.33;25.00;;;;;12.26;83.05;100917.56;5140520;27;45362;-62
2023/04/15 08:30:14;;;;;;;;;17.67;17.67;;;;;12.30;82.98;100904.25;5122428;27;45845;-64
2023/04/15 08:32:41;;;;;;;;;19.33;17.67;;;;;12.44;81.79;100918.84;5119909;27;45720;-62
2023/04/15 08:35:08;;;;;;;;;19.00;16.67;;;;;12.49;81.66;100923.09;5126308;27;45346;-63
2023/04/15 08:37:33;;;;;;;;;24.67;21.67;;;;;12.50;82.33;100918.66;5135698;27;45441;-62
2023/04/15 08:39:58;;;;;;;;;16.00;14.67;;;;;12.63;80.60;100927.09;5140717;27;45445;-63
2023/04/15 08:42:31;;;;;;;;;18.00;15.00;;;;;12.65;80.11;100934.09;5140661;27;45304;-63
2023/04/15 08:44:59;;;;;;;;;15.00;15.00;;;;;12.71;80.59;100947.13;5140382;27;46263;-62
2023/04/15 08:47:29;;;;;;;;;15.00;15.00;;;;;12.73;79.89;100938.28;5140003;27;45451;-63
2023/04/15 08:49:57;;;;;;;;;18.33;15.00;;;;;12.83;79.50;100950.31;5140757;27;45344;-63
2023/04/15 08:52:25;;;;;;;;;15.33;15.00;;;;;12.89;78.43;100958.06;5139328;27;45341;-63
2023/04/15 08:54:54;;;;;;;;;16.00;16.00;;;;;13.04;79.19;100965.56;5139848;27;47236;-63
2023/04/15 08:57:19;;;;;;;;;17.00;15.67;;;;;13.24;79.36;100982.59;5140437;27;45425;-63
2023/04/15 08:59:45;;;;;;;;;13.00;13.00;;;;;13.38;77.13;100980.41;5140412;27;45273;-63
2023/04/15 09:02:11;;;;;;;;;20.67;15.00;;;;;13.44;76.92;100978.50;5140666;27;45661;-63
2023/04/15 09:04:36;;;;;;;;;13.00;11.00;;;;;13.63;75.83;100992.03;5139975;27;46157;-63
2023/04/15 09:07:01;;;;;;;;;11.00;10.67;;;;;13.86;74.86;101010.69;5140314;27;45244;-63
2023/04/15 09:09:27;;;;;;;;;14.67;12.00;;;;;13.99;73.62;101007.66;5140302;27;45371;-63
2023/04/15 09:11:52;;;;;;;;;11.67;11.67;;;;;14.12;73.86;101014.25;5140113;27;45238;-63
2023/04/15 09:14:17;;;;;;;;;14.33;11.33;;;;;14.38;73.74;101023.13;5140141;27;46635;-62
2023/04/15 09:17:09;;;;;;;;;11.33;11.33;;;;;14.69;72.24;101027.38;5140037;27;45229;-63
2023/04/15 09:19:34;;;;;;;;;10.00;9.67;;;;;15.05;70.75;101033.13;5138036;27;45415;-62
2023/04/15 09:22:01;;;;;;;;;10.67;10.00;;;;;15.43;69.10;101025.50;5139954;27;45445;-63
2023/04/15 09:24:36;;;;;;;;;11.00;11.00;;;;;15.99;67.85;101041.97;5139537;27;47236;-63
2023/04/15 09:27:02;;;;;;;;;11.00;10.67;;;;;16.57;66.54;101051.94;5139662;27;45481;-63
2023/04/15 09:29:27;;;;;;;;;9.00;8.67;;;;;17.04;64.47;101041.00;5139910;27;45394;-63
2023/04/15 09:31:53;;;;;;;;;11.33;9.33;;;;;17.64;62.83;101064.00;5139997;27;45404;-63
2023/04/15 09:34:18;;;;;;;;;10.00;8.33;;;;;18.35;61.28;101054.41;5139520;27;47301;-63
2023/04/15 09:36:47;;;;;;;;;12.33;10.67;;;;;19.57;59.06;101056.88;5139345;27;45480;-64
2023/04/15 09:39:13;;;;;;;;;11.00;8.00;;;;;21.47;54.50;101048.34;5139588;27;45438;-63
2023/04/15 09:41:43;;;;;;;;;8.00;8.00;;;;;22.90;49.43;101061.28;5139664;27;45688;-63
2023/04/15 09:44:25;;;;;;;;;9.00;9.00;;;;;22.65;51.96;101056.75;5139640;27;47204;-63
2023/04/15 09:46:50;;;;;;;;;10.00;9.00;;;;;21.97;49.00;101035.31;5139325;27;45439;-62
2023/04/15 09:49:16;;;;;;;;;7.00;7.00;;;;;21.50;49.81;101049.97;5139804;27;45385;-63
2023/04/15 09:51:42;;;;;;;;;11.00;9.00;;;;;21.12;51.61;101077.34;5139802;27;45396;-64
2023/04/15 09:54:08;;;;;;;;;11.00;11.00;;;;;20.82;50.28;101083.63;5139376;27;47244;-63
2023/04/15 09:56:40;;;;;;;;;12.33;11.67;;;;;20.86;49.29;101091.38;5139415;27;45312;-63
2023/04/15 09:59:06;;;;;;;;;18.33;18.00;;;;;21.09;48.73;101089.09;5139532;27;45421;-63
2023/04/15 10:01:31;;;;;;;;;14.33;11.33;;;;;21.17;49.24;101093.97;5139546;27;45501;-63
2023/04/15 10:03:57;;;;;;;;;15.00;11.67;;;;;21.36;46.74;101094.56;5138935;27;45414;-63
2023/04/15 10:06:26;;;;;;;;;12.67;12.33;;;;;21.51;48.03;101087.41;5139251;27;45466;-63
2023/04/15 10:08:53;;;;;;;;;18.33;15.00;;;;;22.54;44.72;101081.63;5139283;27;45496;-63
2023/04/15 10:11:20;;;;;;;;;12.67;10.67;;;;;23.44;45.50;101063.75;5139607;27;45245;-63
2023/04/15 10:13:47;;;;;;;;;13.67;13.67;;;;;24.78;44.43;101096.00;5139118;27;46460;-63
2023/04/15 10:16:15;;;;;;;;;17.67;15.00;;;;;26.15;42.88;101092.31;5138791;27;45674;-63
2023/04/15 10:18:45;;;;;;;;;11.00;11.00;;;;;27.41;38.01;101102.31;5139333;27;45325;-63
2023/04/15 10:21:17;;;;;;;;;12.33;10.33;;;;;27.94;35.85;101095.78;5139332;27;45312;-63
2023/04/15 10:23:46;;;;;;;;;39.00;35.25;;;;;27.66;37.32;101097.41;5139071;27;45427;-63
2023/04/15 10:26:13;;;;;;;;;17.67;15.33;;;;;27.48;35.68;101102.63;5139299;27;45390;-63
2023/04/15 10:28:40;;;;;;;;;16.00;15.00;;;;;27.39;37.29;101098.03;5139076;27;45391;-63
2023/04/15 10:31:06;;;;;;;;;18.00;15.33;;;;;27.16;36.28;101102.72;5139118;27;45706;-64
2023/04/15 10:33:33;;;;;;;;;16.00;16.00;;;;;26.68;34.83;101096.91;5138953;27;45315;-64
2023/04/15 10:36:00;;;;;;;;;19.33;18.00;;;;;26.36;36.36;101105.03;5138921;27;45346;-63
2023/04/15 10:38:35;;;;;;;;;16.67;16.67;;;;;26.36;37.55;101108.56;5139027;27;45293;-63
2023/04/15 10:41:16;;;;;;;;;20.67;20.33;;;;;26.51;37.67;101114.50;5138982;27;45600;-64
2023/04/15 10:43:52;;;;;;;;;20.33;19.00;;;;;26.48;35.70;101122.03;5138862;27;47285;-63
2023/04/15 10:46:20;;;;;;;;;19.00;18.00;;;;;26.31;37.14;101116.19;5138698;27;45395;-63
2023/04/15 10:48:51;;;;;;;;;17.67;16.33;;;;;25.87;36.42;101099.13;5138711;27;45368;-64
2023/04/15 10:51:26;;;;;;;;;23.67;20.33;;;;;25.36;36.43;101124.78;5138971;27;45354;-64
2023/04/15 10:53:56;;;;;;;;;15.00;15.00;;;;;24.87;36.08;101140.22;5138515;27;45333;-64
2023/04/15 10:56:22;;;;;;;;;14.67;13.00;;;;;24.37;36.48;101126.06;5134704;27;45567;-64
2023/04/15 10:58:47;;;;;;;;;16.67;15.00;;;;;24.08;37.00;101138.03;5122914;27;45357;-67
2023/04/15 11:01:13;;;;;;;;;12.67;12.33;;;;;23.89;37.68;101133.16;5126992;27;45350;-67
2023/04/15 11:03:41;;;;;;;;;19.33;15.67;;;;;23.58;37.09;101146.06;5117815;27;45427;-67
2023/04/15 11:06:07;;;;;;;;;13.67;13.00;;;;;23.20;38.20;101138.03;5118003;27;45385;-68
2023/04/15 11:08:55;;;;;;;;;19.00;13.00;;;;;22.67;37.82;101140.72;5117752;27;45557;-67
2023/04/15 11:11:21;;;;;;;;;15.33;14.67;;;;;22.31;37.56;101147.56;5118008;27;45334;-67